Main page
METAR-TAF:

METAR-TAF

Airports :

Macaé Airport

Macaé, Rio de Janeiro, Brazil

latitude: 22-21S, longitude: 041-46W, elevation: 2 m

Current weather observation

The report was made 2 hours and 26 minutes ago, at 02:00 UTC
Wind 2 kt from the North/Northeast
Temperature 21°C
Humidity 94%
Pressure 1014 hPa
Visibility 10 km or more
no clouds below 1500 m and no cumulonimbus

METAR: SBME 140200Z 03002KT CAVOK 21/20 Q1014

Time: 02:26 (04:26 UTC)

Forecast

The report was made 7 hours and 31 minutes ago, at 20:55 UTC
Forecast valid from 14 at 00 UTC to 14 at 12 UTC
Wind 5 kt from the Northeast
Visibility 10 km or more
Few clouds at a height of 2000 ft
Becoming
from 14 at 03 UTC to 14 at 06 UTC
Wind 5 kt from the North/Northwest
Visibility 10 km or more
no clouds below 1500 m and no cumulonimbus
Becoming
from 14 at 10 UTC to 14 at 11 UTC
Wind 5 kt from the Northeast

TAF: SBME 132055Z 1400/1412 04005KT 9999 FEW020 TN23/1408Z TX34/1412Z BECMG 1403/1406 33005KT CAVOK BECMG 1410/1411 04005KT RMK PHC

Weather observations and forecasts of more than 4000 airports (METAR and TAF reports).

The available stations are represented by yellow and red dots on the map.

Hover mouse over dot to see the name of the station.

Then click to see weather observations and forecasts.

To change the map : click on the green buttons with a black cross to zoom in, on the green button with a dash to zoom out, or on the green arrows for adjacent maps.


METAR-TAF: